Time;durP1;ratioP1;P1;durP2;ratioP2;P2;SDS_P1;SDS_P2;PMS_P1;PMS_P2;Temp;Humidity;BMP_temperature;BMP_pressure;BME280_temperature;BME280_humidity;BME280_pressure;Samples;Min_cycle;Max_cycle;Signal;HPM_P1;HPM_P2
2024/01/21 00:01:32;;;;;;;21.58;9.95;;;-4.70;58.30;;;-10.35;100.00;96634.22;4928792;29;20254;-55
2024/01/21 00:03:58;;;;;;;23.70;11.77;;;-4.70;58.30;;;-10.37;100.00;96618.06;4928285;29;20386;-54
2024/01/21 00:06:24;;;;;;;22.73;11.80;;;-4.70;58.30;;;-10.38;100.00;96613.81;4930398;29;20189;-52
2024/01/21 00:08:49;;;;;;;23.65;11.43;;;-4.70;58.30;;;-10.42;100.00;96614.19;4929464;29;20538;-49
2024/01/21 00:11:15;;;;;;;64.90;13.43;;;-4.70;58.40;;;-10.40;100.00;96608.00;4929078;29;20127;-51
2024/01/21 00:13:41;;;;;;;25.15;11.95;;;-4.70;58.40;;;-10.37;100.00;96614.66;4927156;29;20027;-50
2024/01/21 00:16:07;;;;;;;21.50;10.73;;;-4.70;58.40;;;-10.35;100.00;96608.47;4930780;29;20035;-56
2024/01/21 00:18:33;;;;;;;24.33;12.65;;;-4.70;58.40;;;-10.37;100.00;96607.75;4929935;29;20023;-53
2024/01/21 00:20:59;;;;;;;25.30;12.52;;;-4.60;58.50;;;-10.36;100.00;96600.84;4929215;29;20173;-53
2024/01/21 00:23:25;;;;;;;25.38;12.07;;;-4.60;58.50;;;-10.41;100.00;96603.75;4931533;29;20122;-52
2024/01/21 00:25:51;;;;;;;23.52;11.40;;;-4.60;58.60;;;-10.39;100.00;96609.63;4928031;29;20031;-51
2024/01/21 00:28:17;;;;;;;23.80;11.75;;;-4.60;58.50;;;-10.38;100.00;96606.09;4932116;29;20034;-57
2024/01/21 00:30:43;;;;;;;26.35;12.63;;;-4.60;58.50;;;-10.39;100.00;96612.19;4931825;29;20039;-57
2024/01/21 00:33:09;;;;;;;27.10;13.43;;;-4.60;58.50;;;-10.38;100.00;96613.00;4933609;29;20390;-53
2024/01/21 00:35:34;;;;;;;28.38;13.70;;;-4.70;58.40;;;-10.37;100.00;96609.50;4935963;29;20031;-56
2024/01/21 00:38:00;;;;;;;28.67;12.50;;;-4.60;59.10;;;-10.44;100.00;96619.41;4934529;29;20134;-54
2024/01/21 00:40:26;;;;;;;25.63;10.88;;;-4.70;58.40;;;-10.52;100.00;96617.41;4935632;29;20031;-52
2024/01/21 00:42:52;;;;;;;23.88;12.27;;;-4.70;58.40;;;-10.60;100.00;96618.88;4933085;28;20016;-51
2024/01/21 00:45:18;;;;;;;27.60;12.70;;;-4.70;58.40;;;-10.64;100.00;96615.69;4934325;29;20038;-55
2024/01/21 00:47:44;;;;;;;26.55;12.82;;;-4.70;58.40;;;-10.64;100.00;96620.03;4935570;29;20426;-49
2024/01/21 00:50:10;;;;;;;21.13;12.02;;;-4.80;58.30;;;-10.69;100.00;96614.38;4934252;29;20063;-52
2024/01/21 00:52:35;;;;;;;27.63;12.73;;;-4.80;58.30;;;-10.67;100.00;96625.41;4935109;29;20073;-52
2024/01/21 00:55:01;;;;;;;25.15;12.25;;;-4.80;58.40;;;-10.78;100.00;96632.13;4935162;29;20058;-51
2024/01/21 00:57:27;;;;;;;23.80;12.38;;;-4.90;58.30;;;-10.78;100.00;96619.25;4931444;29;20528;-53
2024/01/21 00:59:53;;;;;;;23.98;12.40;;;-4.90;58.30;;;-10.78;100.00;96614.09;4935079;28;20023;-53
2024/01/21 01:02:19;;;;;;;27.85;13.80;;;-4.90;58.40;;;-10.78;100.00;96608.13;4933669;29;20049;-48
2024/01/21 01:04:44;;;;;;;32.63;14.18;;;-5.00;58.40;;;-10.78;100.00;96623.56;4931449;29;20039;-49
2024/01/21 01:07:10;;;;;;;28.00;13.52;;;-5.00;58.50;;;-10.78;100.00;96629.56;4931301;29;20109;-50
2024/01/21 01:09:36;;;;;;;28.60;13.82;;;-5.00;58.50;;;-10.69;100.00;96627.25;4929165;29;20076;-48
2024/01/21 01:12:03;;;;;;;28.38;13.57;;;-5.00;58.60;;;-10.63;100.00;96630.22;4929742;29;20027;-51
2024/01/21 01:14:29;;;;;;;31.15;13.68;;;-5.00;58.80;;;-10.60;100.00;96629.19;4933576;29;20401;-52
2024/01/21 01:16:54;;;;;;;26.00;12.60;;;-5.00;58.70;;;-10.62;100.00;96625.88;4934878;29;20023;-52
2024/01/21 01:19:20;;;;;;;24.58;12.52;;;-4.90;58.80;;;-10.68;100.00;96619.44;4928200;28;20045;-54
2024/01/21 01:21:46;;;;;;;25.52;12.80;;;-4.90;58.70;;;-10.76;100.00;96617.38;4935223;29;20030;-53
2024/01/21 01:24:12;;;;;;;29.75;14.27;;;-5.00;58.60;;;-10.76;100.00;96619.94;4934558;29;20055;-45
2024/01/21 01:26:38;;;;;;;26.48;13.35;;;-5.00;58.60;;;-10.76;100.00;96619.94;4934162;29;20031;-46
2024/01/21 01:29:04;;;;;;;24.25;12.38;;;-5.00;58.70;;;-10.79;100.00;96617.59;4934438;29;20023;-47
2024/01/21 01:31:29;;;;;;;25.48;12.85;;;-5.00;58.70;;;-10.74;100.00;96614.72;4933830;29;20939;-45
2024/01/21 01:33:55;;;;;;;36.30;14.57;;;-5.00;58.80;;;-10.68;100.00;96626.31;4934224;29;20027;-49
2024/01/21 01:36:21;;;;;;;27.30;14.18;;;-5.00;58.80;;;-10.63;100.00;96625.06;4934811;29;20034;-47
2024/01/21 01:38:47;;;;;;;25.35;13.55;;;-5.00;58.90;;;-10.58;100.00;96633.28;4930533;29;20086;-46
2024/01/21 01:41:13;;;;;;;27.95;13.52;;;-5.00;59.00;;;-10.56;100.00;96621.13;4934547;29;20466;-52
2024/01/21 01:43:39;;;;;;;31.23;15.05;;;-4.90;59.00;;;-10.50;100.00;96622.44;4934764;28;20027;-47
2024/01/21 01:46:05;;;;;;;33.42;14.63;;;-4.90;59.00;;;-10.45;100.00;96632.44;4934236;29;20102;-46
2024/01/21 01:48:33;;;;;;;28.75;13.25;;;-4.90;59.10;;;-10.48;100.00;96633.47;4934536;29;20046;-46
2024/01/21 01:51:03;;;;;;;25.98;12.07;;;-4.90;59.00;;;-10.54;100.00;96632.13;4933648;29;20062;-46
2024/01/21 01:53:31;;;;;;;23.88;12.70;;;-4.90;59.60;;;-10.61;100.00;96636.09;4931001;29;20121;-51
2024/01/21 01:55:58;;;;;;;24.23;12.52;;;-4.80;59.00;;;-10.68;100.00;96624.59;4933473;29;20055;-46
2024/01/21 01:58:28;;;;;;;25.30;11.77;;;-4.80;58.90;;;-10.76;100.00;96630.25;4934194;29;20019;-46
2024/01/21 02:00:56;;;;;;;23.27;12.43;;;-4.90;58.80;;;-10.79;100.00;96627.88;4934330;29;20035;-50
2024/01/21 02:03:25;;;;;;;35.45;13.52;;;-4.90;58.80;;;-10.73;100.00;96634.38;4926739;29;20446;-46
2024/01/21 02:05:51;;;;;;;27.13;13.15;;;-4.90;58.90;;;-10.72;100.00;96616.25;4930455;29;20023;-47
2024/01/21 02:08:18;;;;;;;25.20;12.90;;;-4.90;58.90;;;-10.70;100.00;96610.97;4931361;29;20406;-49
2024/01/21 02:10:44;;;;;;;28.27;14.13;;;-5.00;58.90;;;-10.68;100.00;96608.28;4931980;29;20059;-47
2024/01/21 02:13:10;;;;;;;28.55;13.77;;;-5.00;58.90;;;-10.77;100.00;96605.44;4932197;29;20030;-49
2024/01/21 02:15:36;;;;;;;25.38;12.63;;;-5.00;58.90;;;-10.86;100.00;96607.84;4933936;29;20037;-45
2024/01/21 02:18:02;;;;;;;25.63;13.38;;;-5.00;58.90;;;-10.81;100.00;96603.19;4935314;28;20474;-50
2024/01/21 02:20:27;;;;;;;27.05;13.15;;;-5.00;58.90;;;-10.77;100.00;96599.47;4927529;28;20027;-48
2024/01/21 02:22:58;;;;;;;29.02;14.80;;;-5.00;59.00;;;-10.70;100.00;96607.59;4933157;29;20051;-46
2024/01/21 02:25:24;;;;;;;29.70;14.95;;;-5.00;59.10;;;-10.65;100.00;96620.94;4926128;29;20043;-48
2024/01/21 02:27:50;;;;;;;26.35;13.75;;;-5.00;59.20;;;-10.74;100.00;96612.94;4933440;29;20037;-45
2024/01/21 02:30:16;;;;;;;27.77;13.55;;;-5.00;59.10;;;-10.77;100.00;96610.59;4926369;29;20063;-47
2024/01/21 02:32:41;;;;;;;25.42;12.50;;;-5.00;59.10;;;-10.81;100.00;96604.03;4927015;29;20481;-46
2024/01/21 02:35:08;;;;;;;25.75;12.38;;;-5.00;59.00;;;-10.89;100.00;96606.31;4933510;29;20027;-45
2024/01/21 02:37:34;;;;;;;28.55;13.15;;;-5.00;59.00;;;-10.86;100.00;96610.41;4929506;29;20542;-47
2024/01/21 02:40:00;;;;;;;26.52;13.30;;;-5.10;59.60;;;-10.92;100.00;96597.97;4931646;29;20038;-48
2024/01/21 02:42:26;;;;;;;31.40;15.20;;;-5.10;58.90;;;-10.96;100.00;96600.75;4933959;28;20125;-50
2024/01/21 02:44:54;;;;;;;29.60;14.75;;;-5.10;59.00;;;-10.91;100.00;96594.47;4926693;28;20023;-49
2024/01/21 02:47:20;;;;;;;25.98;13.82;;;-5.10;59.00;;;-10.89;100.00;96603.72;4933470;29;20109;-47
2024/01/21 02:49:46;;;;;;;41.47;15.65;;;-5.10;59.10;;;-10.87;100.00;96598.47;4927657;29;20518;-47
2024/01/21 02:52:11;;;;;;;36.40;17.27;;;-5.10;59.20;;;-10.87;100.00;96604.44;4932208;29;20109;-47
2024/01/21 02:54:37;;;;;;;38.22;15.70;;;-5.10;59.20;;;-10.83;100.00;96599.91;4933222;29;20022;-45
2024/01/21 02:57:03;;;;;;;27.92;13.98;;;-5.10;59.20;;;-10.85;100.00;96610.28;4931276;29;20367;-45
2024/01/21 02:59:29;;;;;;;31.85;15.07;;;-5.10;59.30;;;-10.84;100.00;96604.25;4933093;29;20518;-48
2024/01/21 03:01:57;;;;;;;30.73;15.05;;;-5.10;59.30;;;-10.82;100.00;96612.66;4926960;29;20114;-45
2024/01/21 03:04:23;;;;;;;28.88;15.10;;;-5.10;59.30;;;-10.87;100.00;96611.31;4931777;28;20035;-46
2024/01/21 03:06:49;;;;;;;30.33;14.80;;;-5.10;59.30;;;-10.93;100.00;96615.19;4930525;29;20082;-51
2024/01/21 03:09:15;;;;;;;29.40;15.52;;;-5.10;59.30;;;-10.90;100.00;96614.13;4930737;29;20038;-46
2024/01/21 03:11:40;;;;;;;30.67;15.90;;;-5.10;59.30;;;-10.86;100.00;96613.81;4929013;28;20451;-53
2024/01/21 03:14:07;;;;;;;32.30;15.25;;;-5.10;59.30;;;-10.86;100.00;96613.00;4926465;29;20585;-46
2024/01/21 03:16:33;;;;;;;26.20;13.82;;;-5.10;59.30;;;-10.94;100.00;96605.78;4932976;29;20457;-46
2024/01/21 03:18:59;;;;;;;30.05;14.30;;;-5.10;59.30;;;-10.92;100.00;96611.66;4928269;28;20046;-45
2024/01/21 03:21:25;;;;;;;34.03;15.52;;;-5.10;59.30;;;-10.88;100.00;96607.94;4931969;29;20027;-45
2024/01/21 03:23:51;;;;;;;30.67;15.25;;;-5.10;59.30;;;-10.81;100.00;96604.03;4932126;29;20474;-47
2024/01/21 03:26:17;;;;;;;33.20;16.38;;;-5.10;59.40;;;-10.78;100.00;96610.69;4923226;29;20106;-45
2024/01/21 03:28:43;;;;;;;30.90;14.98;;;-5.10;59.50;;;-10.78;100.00;96608.13;4928148;29;20062;-47
2024/01/21 03:31:09;;;;;;;31.63;14.93;;;-5.10;59.50;;;-10.79;100.00;96606.47;4930573;29;20483;-47
2024/01/21 03:33:34;;;;;;;29.08;15.38;;;-5.10;59.50;;;-10.82;100.00;96607.50;4927665;29;20517;-50
2024/01/21 03:36:02;;;;;;;34.88;14.85;;;-5.10;59.40;;;-10.84;100.00;96604.25;4931045;29;20656;-47
2024/01/21 03:38:27;;;;;;;32.63;16.25;;;-5.10;59.40;;;-10.85;100.00;96612.88;4925903;29;20023;-47
2024/01/21 03:40:53;;;;;;;33.95;16.63;;;-5.10;59.40;;;-10.88;100.00;96597.63;4927863;29;20501;-46
2024/01/21 03:43:19;;;;;;;45.08;18.83;;;-5.10;59.40;;;-10.85;100.00;96594.03;4931746;28;20519;-50
2024/01/21 03:45:45;;;;;;;40.47;18.88;;;-5.10;59.50;;;-10.83;100.00;96598.16;4931328;29;20042;-47
2024/01/21 03:48:11;;;;;;;42.72;19.77;;;-5.10;59.50;;;-10.83;100.00;96593.00;4920523;29;20034;-50
2024/01/21 03:50:37;;;;;;;41.70;18.92;;;-5.10;59.50;;;-10.79;100.00;96597.00;4930590;29;20117;-50
2024/01/21 03:53:03;;;;;;;43.72;20.77;;;-5.00;59.60;;;-10.78;100.00;96595.25;4927580;29;20103;-46
2024/01/21 03:55:29;;;;;;;41.67;19.70;;;-5.00;59.60;;;-10.75;100.00;96597.59;4931719;29;20027;-45
2024/01/21 03:57:55;;;;;;;39.10;18.48;;;-5.00;59.60;;;-10.71;100.00;96591.31;4925138;29;20466;-47
2024/01/21 04:00:21;;;;;;;41.75;18.63;;;-5.00;59.60;;;-10.67;100.00;96592.75;4932030;29;20062;-45
2024/01/21 04:02:46;;;;;;;40.70;19.90;;;-5.00;59.70;;;-10.64;100.00;96586.56;4930424;29;20054;-46
2024/01/21 04:05:12;;;;;;;48.78;22.25;;;-5.00;59.70;;;-10.63;100.00;96583.03;4921340;29;20588;-45
2024/01/21 04:07:38;;;;;;;57.88;21.48;;;-5.00;59.80;;;-10.63;100.00;96575.31;4930674;29;20041;-47
2024/01/21 04:10:06;;;;;;;50.38;21.25;;;-4.90;59.80;;;-10.63;100.00;96573.56;4930983;29;20050;-49
2024/01/21 04:12:33;;;;;;;44.67;19.55;;;-4.90;59.80;;;-10.63;100.00;96575.31;4932281;29;20106;-45
2024/01/21 04:14:59;;;;;;;49.88;20.88;;;-4.90;59.90;;;-10.62;100.00;96579.53;4926312;29;20498;-48
2024/01/21 04:17:25;;;;;;;64.88;22.55;;;-4.90;59.80;;;-10.57;100.00;96574.88;4924765;29;20035;-46
2024/01/21 04:19:51;;;;;;;43.38;19.73;;;-4.90;59.80;;;-10.52;100.00;96586.50;4924822;29;20482;-45
2024/01/21 04:22:18;;;;;;;61.67;23.38;;;-4.90;59.90;;;-10.50;100.00;96584.66;4924580;29;20023;-47
2024/01/21 04:24:46;;;;;;;50.47;21.80;;;-4.80;59.90;;;-10.46;100.00;96580.09;4932092;29;20122;-46
2024/01/21 04:27:12;;;;;;;47.58;21.70;;;-4.80;59.90;;;-10.45;100.00;96565.44;4929192;29;20038;-45
2024/01/21 04:29:38;;;;;;;66.40;23.58;;;-4.80;59.90;;;-10.50;100.00;96558.88;4932116;29;20069;-47
2024/01/21 04:32:05;;;;;;;58.90;23.38;;;-4.80;59.90;;;-10.48;100.00;96559.56;4931005;29;20031;-46
2024/01/21 04:34:30;;;;;;;51.50;23.42;;;-4.80;59.90;;;-10.49;100.00;96563.09;4932133;29;20113;-46
2024/01/21 04:36:56;;;;;;;54.22;23.40;;;-4.80;60.00;;;-10.45;100.00;96568.84;4931378;29;20110;-46
2024/01/21 04:39:22;;;;;;;54.17;24.27;;;-4.70;60.00;;;-10.35;100.00;96566.41;4931346;29;20022;-46
2024/01/21 04:41:51;;;;;;;50.70;21.77;;;-4.70;60.10;;;-10.25;100.00;96567.34;4932258;29;20462;-46
2024/01/21 04:44:17;;;;;;;76.05;26.70;;;-4.70;60.20;;;-10.18;100.00;96565.16;4929404;29;20023;-46
2024/01/21 04:46:43;;;;;;;51.67;22.95;;;-4.70;60.30;;;-10.18;100.00;96567.72;4931515;29;20082;-45
2024/01/21 04:49:08;;;;;;;52.90;24.88;;;-4.60;60.30;;;-10.06;100.00;96554.78;4931851;29;20125;-56
2024/01/21 04:51:37;;;;;;;51.95;22.33;;;-4.60;60.40;;;-10.04;100.00;96555.47;4931232;29;20027;-45
2024/01/21 04:54:04;;;;;;;43.95;21.63;;;-4.50;60.40;;;-9.95;100.00;96548.81;4932047;29;20058;-46
2024/01/21 04:56:30;;;;;;;55.92;23.58;;;-4.50;60.40;;;-9.87;100.00;96549.06;4930631;29;20115;-46
2024/01/21 04:58:55;;;;;;;47.20;21.45;;;-4.40;60.50;;;-9.80;100.00;96552.00;4931612;29;20549;-48
2024/01/21 05:01:23;;;;;;;46.90;21.90;;;-4.40;60.50;;;-9.75;100.00;96549.06;4927340;29;20057;-47
2024/01/21 05:03:50;;;;;;;43.63;19.50;;;-4.30;60.60;;;-9.84;100.00;96555.72;4931164;29;20027;-52
2024/01/21 05:06:16;;;;;;;43.10;20.05;;;-4.30;60.50;;;-9.88;100.00;96556.91;4923740;29;20084;-46
2024/01/21 05:08:42;;;;;;;48.78;19.95;;;-4.20;60.40;;;-9.93;100.00;96557.28;4930757;29;20054;-47
2024/01/21 05:11:08;;;;;;;44.53;20.67;;;-4.20;60.30;;;-9.94;100.00;96553.03;4931624;29;20069;-48
2024/01/21 05:13:34;;;;;;;43.53;20.73;;;-4.20;60.20;;;-9.92;100.00;96546.00;4930871;29;20119;-46
2024/01/21 05:16:00;;;;;;;39.88;18.90;;;-4.20;60.10;;;-9.92;100.00;96547.78;4931096;29;20110;-45
2024/01/21 05:18:26;;;;;;;39.63;19.90;;;-4.20;60.10;;;-9.91;100.00;96547.66;4927336;29;20098;-46
2024/01/21 05:20:52;;;;;;;37.55;18.10;;;-4.20;60.00;;;-9.93;100.00;96546.97;4931280;29;20085;-46
2024/01/21 05:23:18;;;;;;;52.67;19.77;;;-4.20;60.00;;;-10.01;100.00;96547.50;4935315;29;20039;-45
2024/01/21 05:25:45;;;;;;;40.10;18.48;;;-4.20;60.10;;;-10.02;100.00;96548.47;4933776;29;20478;-45
2024/01/21 05:28:11;;;;;;;41.55;18.75;;;-4.20;60.00;;;-9.94;100.00;96549.63;4934927;29;20031;-48
2024/01/21 05:30:37;;;;;;;45.30;19.73;;;-4.20;60.00;;;-9.89;100.00;96552.69;4934889;29;20031;-50
2024/01/21 05:33:03;;;;;;;43.38;19.85;;;-4.20;60.10;;;-9.83;100.00;96555.63;4934225;29;20015;-51
2024/01/21 05:35:29;;;;;;;43.33;19.35;;;-4.20;60.20;;;-9.85;100.00;96554.91;4934970;29;20391;-48
2024/01/21 05:37:55;;;;;;;35.35;17.45;;;-4.20;60.20;;;-9.84;100.00;96573.78;4933698;29;20026;-48
2024/01/21 05:40:20;;;;;;;40.15;18.60;;;-4.20;60.20;;;-9.88;100.00;96568.03;4927632;29;20035;-47
2024/01/21 05:42:46;;;;;;;38.67;18.42;;;-4.20;60.20;;;-9.86;100.00;96578.25;4934165;29;20016;-46
2024/01/21 05:45:12;;;;;;;41.05;18.13;;;-4.20;60.10;;;-9.83;100.00;96583.19;4931643;29;20054;-47
2024/01/21 05:47:38;;;;;;;34.85;17.73;;;-4.10;60.20;;;-9.84;100.00;96582.38;4934225;28;20031;-51
2024/01/21 05:50:05;;;;;;;34.72;17.00;;;-4.10;60.30;;;-9.80;100.00;96585.53;4933755;29;20497;-47
2024/01/21 05:52:33;;;;;;;37.00;17.73;;;-4.10;60.20;;;-9.78;100.00;96583.66;4949396;28;20089;-45
2024/01/21 05:54:59;;;;;;;41.83;18.38;;;-4.10;60.20;;;-9.84;100.00;96594.41;4934451;29;20035;-46
2024/01/21 05:57:24;;;;;;;42.20;17.90;;;-4.10;60.20;;;-9.81;100.00;96589.03;4933201;29;20034;-49
2024/01/21 05:59:50;;;;;;;41.38;19.00;;;-4.10;60.20;;;-9.75;100.00;96591.16;4934415;28;20067;-47
2024/01/21 06:02:17;;;;;;;37.03;18.42;;;-4.10;60.20;;;-9.69;100.00;96589.88;4923690;29;20466;-46
2024/01/21 06:04:43;;;;;;;36.97;17.35;;;-4.10;60.30;;;-9.68;100.00;96589.78;4927342;29;20480;-46
2024/01/21 06:07:09;;;;;;;40.70;18.67;;;-4.00;60.40;;;-9.68;100.00;96594.09;4932933;29;20122;-47
2024/01/21 06:09:35;;;;;;;38.08;17.77;;;-4.00;60.30;;;-9.69;100.00;96595.84;4933559;29;20089;-48
2024/01/21 06:12:00;;;;;;;31.55;17.00;;;-4.00;60.30;;;-9.69;100.00;96600.19;4934329;29;20438;-46
2024/01/21 06:14:26;;;;;;;34.35;16.70;;;-4.00;60.30;;;-9.70;100.00;96606.31;4933096;29;20031;-45
2024/01/21 06:16:53;;;;;;;29.73;14.80;;;-4.00;60.30;;;-9.80;100.00;96604.41;4933628;29;20074;-46
2024/01/21 06:19:19;;;;;;;31.98;16.13;;;-4.00;60.20;;;-9.77;100.00;96605.94;4927741;29;20110;-53
2024/01/21 06:21:44;;;;;;;38.13;17.13;;;-4.00;60.20;;;-9.76;100.00;96609.34;4930094;29;20106;-46
2024/01/21 06:24:12;;;;;;;35.45;17.40;;;-4.00;60.20;;;-9.76;100.00;96601.59;4933730;29;20058;-50
2024/01/21 06:26:40;;;;;;;32.95;16.95;;;-4.00;60.30;;;-9.73;100.00;96617.66;4930900;29;20034;-46
2024/01/21 06:29:07;;;;;;;35.72;17.27;;;-4.10;60.30;;;-9.70;100.00;96620.00;4932895;29;20078;-46
2024/01/21 06:31:33;;;;;;;31.73;16.73;;;-4.00;60.40;;;-9.70;100.00;96625.16;4932814;29;20035;-46
2024/01/21 06:33:59;;;;;;;34.72;16.70;;;-4.10;60.40;;;-9.71;100.00;96631.28;4933773;29;20528;-46
2024/01/21 06:36:25;;;;;;;38.08;17.25;;;-4.00;60.40;;;-9.70;100.00;96640.66;4933389;29;20058;-46
2024/01/21 06:38:52;;;;;;;33.88;16.27;;;-4.00;60.50;;;-9.74;100.00;96638.38;4932681;29;20023;-55
2024/01/21 06:41:18;;;;;;;31.60;15.52;;;-4.00;60.50;;;-9.80;100.00;96640.50;4933919;28;20031;-46
2024/01/21 06:43:44;;;;;;;35.85;17.33;;;-4.00;60.40;;;-9.77;100.00;96636.88;4931553;28;20030;-52
2024/01/21 06:46:10;;;;;;;36.05;17.58;;;-4.10;60.40;;;-9.80;100.00;96634.53;4933031;29;20101;-47
2024/01/21 06:48:36;;;;;;;33.78;15.80;;;-4.10;60.30;;;-9.80;100.00;96640.50;4933696;29;20031;-47
2024/01/21 06:51:10;;;;;;;35.28;17.23;;;-4.10;60.40;;;-9.82;100.00;96637.22;4932644;29;20101;-47
2024/01/21 06:53:40;;;;;;;37.17;16.77;;;-4.10;60.40;;;-9.78;100.00;96637.81;4933458;29;20031;-48
2024/01/21 06:56:09;;;;;;;42.53;19.10;;;-4.10;60.40;;;-9.76;100.00;96641.09;4929238;29;20034;-45
2024/01/21 06:58:35;;;;;;;32.65;17.17;;;-4.10;60.50;;;-9.72;100.00;96646.84;4920757;29;20118;-47
2024/01/21 07:01:01;;;;;;;36.35;17.33;;;-4.00;61.50;;;-9.70;100.00;96650.16;4927816;29;20062;-46
2024/01/21 07:03:28;;;;;;;36.45;16.10;;;-4.00;60.70;;;-9.68;100.00;96648.25;4928203;29;20448;-46
2024/01/21 07:05:55;;;;;;;31.25;15.68;;;-3.90;60.70;;;-9.65;100.00;96655.75;4924587;29;20023;-47
2024/01/21 07:08:21;;;;;;;36.63;15.90;;;-3.90;60.70;;;-9.64;100.00;96662.59;4932003;29;20023;-46
2024/01/21 07:10:47;;;;;;;36.58;16.67;;;-3.90;60.70;;;-9.40;100.00;96662.50;4933378;29;20027;-46
2024/01/21 07:13:13;;;;;;;38.75;18.67;;;-3.80;60.90;;;-9.27;100.00;96665.84;4932257;29;20050;-54
2024/01/21 07:15:39;;;;;;;36.85;18.10;;;-3.80;61.00;;;-9.21;100.00;96667.94;4932343;29;20035;-46
2024/01/21 07:18:07;;;;;;;33.72;15.43;;;-3.70;61.20;;;-9.12;100.00;96662.09;4932316;29;20023;-49
2024/01/21 07:20:33;;;;;;;34.47;16.77;;;-3.60;61.20;;;-9.03;100.00;96665.72;4920453;29;20031;-47
2024/01/21 07:22:59;;;;;;;34.78;16.45;;;-3.50;61.30;;;-8.95;100.00;96668.53;4920882;29;20043;-46
2024/01/21 07:25:25;;;;;;;30.65;15.90;;;-3.40;61.20;;;-8.88;100.00;96671.47;4920857;29;20023;-49
2024/01/21 07:27:51;;;;;;;33.80;15.82;;;-3.30;61.30;;;-8.79;100.00;96681.09;4923221;29;20027;-55
2024/01/21 07:30:17;;;;;;;30.60;14.15;;;-3.10;61.30;;;-8.72;100.00;96684.03;4928231;29;20089;-47
2024/01/21 07:32:43;;;;;;;29.95;13.73;;;-3.00;61.30;;;-8.63;100.00;96689.31;4931955;29;20457;-51
2024/01/21 07:35:10;;;;;;;27.17;13.80;;;-2.90;61.20;;;-8.51;100.00;96703.03;4932720;29;20038;-49
2024/01/21 07:37:37;;;;;;;28.05;14.52;;;-2.80;61.20;;;-8.42;100.00;96701.50;4927802;29;20106;-50
2024/01/21 07:40:05;;;;;;;28.42;13.93;;;-2.60;61.20;;;-8.33;100.00;96705.94;4925167;29;20645;-45
2024/01/21 07:42:31;;;;;;;31.52;14.65;;;-2.50;61.20;;;-8.23;100.00;96706.84;4930981;28;20027;-49
2024/01/21 07:44:58;;;;;;;31.67;15.07;;;-2.30;61.10;;;-8.14;100.00;96713.06;4941143;28;20023;-49
2024/01/21 07:47:24;;;;;;;30.73;14.15;;;-2.20;61.20;;;-8.01;100.00;96713.72;4919629;29;20041;-46
2024/01/21 07:49:50;;;;;;;27.52;13.55;;;-2.10;61.20;;;-7.91;100.00;96717.22;4926973;29;20079;-50
2024/01/21 07:52:17;;;;;;;27.65;13.73;;;-1.90;61.20;;;-7.82;100.00;96717.44;4917904;29;20497;-46
2024/01/21 07:54:44;;;;;;;23.63;13.25;;;-1.80;61.00;;;-7.71;100.00;96713.06;4930407;29;20031;-48
2024/01/21 07:57:11;;;;;;;25.77;13.32;;;-1.70;60.90;;;-7.61;100.00;96715.72;4931340;29;20030;-46
2024/01/21 07:59:37;;;;;;;24.70;12.40;;;-1.60;60.90;;;-7.49;100.00;96729.41;4921524;29;20082;-46
2024/01/21 08:02:03;;;;;;;21.92;11.57;;;-1.50;60.80;;;-7.36;100.00;96718.88;4922674;29;20019;-47
2024/01/21 08:04:29;;;;;;;23.33;11.63;;;-1.30;60.90;;;-7.23;100.00;96725.53;4926530;29;20081;-54
2024/01/21 08:06:54;;;;;;;23.33;12.07;;;-1.20;60.90;;;-7.10;100.00;96734.88;4925044;29;20035;-53
2024/01/21 08:09:21;;;;;;;22.63;12.35;;;-1.00;61.00;;;-6.95;100.00;96731.03;4925748;29;20110;-54
2024/01/21 08:11:47;;;;;;;24.58;12.95;;;-0.90;60.90;;;-6.83;100.00;96730.00;4932055;29;20037;-54
2024/01/21 08:14:13;;;;;;;25.20;13.45;;;-0.80;60.90;;;-6.69;100.00;96717.66;4926177;29;20019;-57
2024/01/21 08:16:39;;;;;;;21.50;12.00;;;-0.70;60.80;;;-6.58;100.00;96720.13;4926736;29;20426;-52
2024/01/21 08:19:05;;;;;;;28.98;16.02;;;-0.50;60.80;;;-6.49;100.00;96723.72;4931109;29;20028;-56
2024/01/21 08:21:31;;;;;;;26.60;14.75;;;-0.40;60.60;;;-6.38;100.00;96721.03;4931331;29;20082;-58
2024/01/21 08:23:58;;;;;;;28.20;15.15;;;-0.20;60.60;;;-6.25;100.00;96713.03;4930009;29;20031;-56
2024/01/21 08:26:24;;;;;;;26.80;14.93;;;-0.10;60.60;;;-6.16;100.00;96713.03;4931344;29;20031;-54
2024/01/21 08:28:50;;;;;;;27.00;15.25;;;0.10;60.50;;;-6.07;100.00;96708.84;4932002;29;20022;-54
2024/01/21 08:31:16;;;;;;;27.45;15.10;;;0.20;60.40;;;-5.96;100.00;96715.66;4931768;29;20122;-54
2024/01/21 08:33:42;;;;;;;27.80;15.20;;;0.40;60.30;;;-5.84;100.00;96711.97;4931312;29;20129;-57
2024/01/21 08:36:09;;;;;;;25.52;14.95;;;0.60;60.20;;;-5.77;100.00;96718.25;4931610;29;20114;-56
2024/01/21 08:38:36;;;;;;;24.02;14.73;;;0.70;60.00;;;-5.66;100.00;96715.53;4924347;29;20020;-53
2024/01/21 08:41:02;;;;;;;22.85;12.15;;;0.80;59.90;;;-5.50;100.00;96720.19;4931816;29;20113;-56
2024/01/21 08:43:28;;;;;;;21.17;11.65;;;1.00;59.90;;;-5.33;100.00;96720.44;4932766;29;20122;-55
2024/01/21 08:45:54;;;;;;;20.33;12.23;;;1.10;59.90;;;-5.21;100.00;96712.38;4927946;29;20114;-55
2024/01/21 08:48:20;;;;;;;23.92;12.60;;;1.30;60.00;;;-5.08;100.00;96719.06;4927614;29;20621;-52
2024/01/21 08:50:45;;;;;;;21.95;12.75;;;1.40;59.90;;;-4.91;100.00;96728.75;4931203;29;20031;-56
2024/01/21 08:53:11;;;;;;;18.00;11.77;;;1.60;59.90;;;-4.80;100.00;96735.56;4932139;29;20090;-54
2024/01/21 08:55:37;;;;;;;20.25;12.35;;;1.70;59.80;;;-4.65;100.00;96736.75;4934685;29;20037;-54
2024/01/21 08:58:03;;;;;;;17.80;11.40;;;1.90;59.80;;;-4.53;100.00;96740.81;4934952;29;20466;-58
2024/01/21 09:00:29;;;;;;;20.40;12.70;;;2.00;59.60;;;-4.35;100.00;96746.09;4935374;29;20505;-56
2024/01/21 09:02:55;;;;;;;27.83;12.68;;;2.20;59.60;;;-4.26;100.00;96747.00;4933887;28;20027;-58
2024/01/21 09:05:21;;;;;;;21.00;12.55;;;2.50;59.50;;;-4.03;100.00;96745.66;4933609;28;20027;-56
2024/01/21 09:07:47;;;;;;;23.10;14.10;;;2.70;59.40;;;-3.82;100.00;96744.63;4927575;29;20046;-59
2024/01/21 09:10:14;;;;;;;20.45;12.25;;;3.00;59.40;;;-3.63;100.00;96754.91;4935208;29;20034;-58
2024/01/21 09:12:40;;;;;;;19.70;12.55;;;3.30;59.20;;;-3.53;100.00;96739.19;4935290;29;20039;-59
2024/01/21 09:15:07;;;;;;;19.88;12.80;;;3.60;59.00;;;-3.32;100.00;96744.09;4930567;29;20086;-53
2024/01/21 09:17:33;;;;;;;19.77;12.90;;;3.90;58.90;;;-3.08;100.00;96746.91;4929073;29;20026;-52
2024/01/21 09:19:59;;;;;;;17.52;12.55;;;4.10;58.70;;;-3.01;100.00;96752.34;4932370;29;20035;-55
2024/01/21 09:22:25;;;;;;;18.25;12.20;;;4.40;58.40;;;-2.83;100.00;96750.53;4934741;29;20034;-57
2024/01/21 09:24:51;;;;;;;17.08;11.52;;;4.50;58.10;;;-2.62;100.00;96757.19;4934990;29;20039;-56
2024/01/21 09:27:17;;;;;;;19.17;12.38;;;4.70;58.00;;;-2.47;100.00;96758.28;4923428;28;20503;-54
2024/01/21 09:29:44;;;;;;;19.25;12.13;;;4.90;57.90;;;-2.30;100.00;96751.34;4935312;29;20031;-54
2024/01/21 09:32:11;;;;;;;18.48;12.30;;;5.20;57.90;;;-2.08;100.00;96741.31;4928809;29;20034;-52
2024/01/21 09:34:39;;;;;;;20.55;12.48;;;5.40;57.80;;;-1.88;100.00;96746.16;4919956;29;20063;-53
2024/01/21 09:37:06;;;;;;;15.02;10.43;;;5.70;57.60;;;-1.66;100.00;96736.91;4927051;29;20043;-55
2024/01/21 09:39:32;;;;;;;14.60;10.20;;;5.90;57.40;;;-1.49;100.00;96739.53;4927016;28;20114;-54
2024/01/21 09:42:00;;;;;;;12.98;8.77;;;6.20;57.30;;;-1.22;100.00;96741.06;4918689;29;20024;-55
2024/01/21 09:44:29;;;;;;;13.48;9.07;;;6.50;57.00;;;-0.95;100.00;96748.56;4927474;29;20507;-57
2024/01/21 09:47:01;;;;;;;10.48;7.53;;;6.80;56.80;;;-0.72;100.00;96745.31;4922896;29;20027;-56
2024/01/21 09:49:28;;;;;;;13.65;7.65;;;7.10;56.60;;;-0.43;100.00;96744.75;4928334;29;20490;-55
2024/01/21 09:51:55;;;;;;;9.73;6.90;;;7.40;56.50;;;-0.32;94.95;96748.81;4920628;29;20031;-58
2024/01/21 09:54:23;;;;;;;9.02;6.70;;;7.50;56.00;;;-0.26;91.95;96733.25;4923868;29;20472;-56